Time;durP1;ratioP1;P1;durP2;ratioP2;P2;SDS_P1;SDS_P2;PMS_P1;PMS_P2;Temp;Humidity;BMP_temperature;BMP_pressure;BME280_temperature;BME280_humidity;BME280_pressure;Samples;Min_cycle;Max_cycle;Signal;HPM_P1;HPM_P2
2022/08/25 00:01:16;;;;;;;5.90;2.70;;;;;;;20.43;56.64;100169.31;4984686;28;20762;-65
2022/08/25 00:03:43;;;;;;;4.83;3.53;;;;;;;20.40;57.04;100166.97;4986028;28;20593;-66
2022/08/25 00:06:09;;;;;;;5.10;3.80;;;;;;;20.42;57.09;100165.03;4990858;28;20184;-66
2022/08/25 00:08:36;;;;;;;6.50;4.27;;;;;;;20.40;56.24;100167.78;4984099;28;20662;-66
2022/08/25 00:11:04;;;;;;;6.10;3.93;;;;;;;20.33;56.95;100158.91;4985777;28;20630;-66
2022/08/25 00:13:31;;;;;;;5.00;2.60;;;;;;;20.27;57.01;100164.69;4991083;28;20180;-66
2022/08/25 00:15:57;;;;;;;5.87;4.03;;;;;;;20.25;57.30;100175.28;4993930;28;20306;-66
2022/08/25 00:18:22;;;;;;;6.73;5.17;;;;;;;20.20;58.02;100168.84;4991386;28;20279;-66
2022/08/25 00:20:47;;;;;;;4.20;3.07;;;;;;;20.19;58.28;100162.78;4983897;28;20231;-66
2022/08/25 00:23:13;;;;;;;3.30;2.83;;;;;;;20.22;58.13;100162.53;5005020;28;20180;-66
2022/08/25 00:25:38;;;;;;;3.43;2.70;;;;;;;20.19;57.85;100164.59;4995596;28;20329;-66
2022/08/25 00:28:03;;;;;;;4.70;2.60;;;;;;;20.21;57.51;100168.72;4992236;28;20318;-69
2022/08/25 00:30:29;;;;;;;6.13;3.10;;;;;;;20.14;57.61;100167.63;4994893;28;20237;-67
2022/08/25 00:32:54;;;;;;;2.90;2.40;;;;;;;20.25;57.64;100170.06;5006704;28;20714;-66
2022/08/25 00:35:19;;;;;;;4.13;2.93;;;;;;;20.21;57.80;100171.31;5010196;28;20275;-66
2022/08/25 00:37:45;;;;;;;6.60;2.80;;;;;;;20.34;56.91;100168.34;4979705;28;20555;-69
2022/08/25 00:40:11;;;;;;;4.13;2.37;;;;;;;20.41;56.35;100166.00;4994694;28;20749;-66
2022/08/25 00:42:37;;;;;;;4.17;2.70;;;;;;;20.35;56.01;100172.63;4994688;28;20545;-66
2022/08/25 00:45:05;;;;;;;7.43;4.50;;;;;;;20.50;56.67;100174.75;4980565;28;20201;-66
2022/08/25 00:47:30;;;;;;;5.57;2.97;;;;;;;20.55;56.80;100180.34;5008218;28;20214;-66
2022/08/25 00:49:58;;;;;;;4.77;2.73;;;;;;;20.68;55.59;100179.97;4995158;28;20608;-66
2022/08/25 00:52:32;;;;;;;3.90;3.00;;;;;;;20.61;56.40;100177.97;4990114;28;21036;-66
2022/08/25 00:55:05;;;;;;;4.67;2.90;;;;;;;20.56;56.94;100185.41;4989593;28;20714;-66
2022/08/25 00:57:48;;;;;;;5.07;3.03;;;;;;;20.46;57.17;100182.06;4990356;28;20188;-67
2022/08/25 01:00:21;;;;;;;3.90;2.50;;;;;;;20.46;57.68;100180.25;4986489;28;20267;-67
2022/08/25 01:02:47;;;;;;;4.77;2.83;;;;;;;20.43;57.74;100177.13;5007361;28;20179;-67
2022/08/25 01:05:13;;;;;;;3.27;2.70;;;;;;;20.41;57.60;100181.66;4993235;28;20186;-66
2022/08/25 01:07:42;;;;;;;3.30;3.00;;;;;;;20.35;57.88;100180.44;4991869;28;20223;-66
2022/08/25 01:10:10;;;;;;;7.67;2.93;;;;;;;20.27;57.63;100175.97;4981057;28;20279;-67
2022/08/25 01:12:36;;;;;;;6.47;2.60;;;;;;;20.45;57.18;100183.00;4988193;28;20698;-66
2022/08/25 01:15:04;;;;;;;3.07;2.60;;;;;;;20.46;57.31;100182.06;4988236;28;20180;-66
2022/08/25 01:17:51;;;;;;;3.90;2.73;;;;;;;20.35;58.53;100179.66;4986792;28;20183;-67
2022/08/25 01:20:19;;;;;;;4.30;3.33;;;;;;;20.36;59.66;100184.72;4986586;28;20215;-67
2022/08/25 01:22:45;;;;;;;5.33;3.00;;;;;;;20.22;60.11;100183.41;5007566;28;20184;-67
2022/08/25 01:25:38;;;;;;;5.20;2.90;;;;;;;20.07;58.94;100182.22;4990249;28;20242;-68
2022/08/25 01:28:04;;;;;;;3.63;3.07;;;;;;;20.05;59.46;100187.59;4990589;28;20231;-67
2022/08/25 01:30:30;;;;;;;5.23;3.20;;;;;;;20.02;58.72;100179.22;4984795;28;20281;-66
2022/08/25 01:32:55;;;;;;;2.87;2.23;;;;;;;19.91;59.50;100188.06;4977591;28;20540;-68
2022/08/25 01:35:20;;;;;;;3.60;2.50;;;;;;;19.87;58.94;100184.94;4987227;28;20251;-67
2022/08/25 01:37:47;;;;;;;5.37;3.13;;;;;;;19.82;59.19;100185.31;4986665;28;20188;-66
2022/08/25 01:40:12;;;;;;;5.60;3.20;;;;;;;19.80;59.38;100191.66;4977033;28;20240;-75
2022/08/25 01:42:52;;;;;;;4.70;2.70;;;;;;;19.62;59.95;100187.16;4989795;28;20644;-67
2022/08/25 01:45:17;;;;;;;4.53;2.70;;;;;;;19.63;60.20;100190.56;5003661;28;20179;-66
2022/08/25 01:47:43;;;;;;;8.93;3.13;;;;;;;19.57;61.01;100191.94;4989669;28;20208;-66
2022/08/25 01:50:08;;;;;;;3.27;2.70;;;;;;;19.52;60.49;100195.00;4975850;28;20179;-66
2022/08/25 01:53:06;;;;;;;3.23;2.60;;;;;;;19.43;61.72;100189.78;4995806;28;20207;-66
2022/08/25 01:55:50;;;;;;;5.20;3.03;;;;;;;19.46;61.20;100190.34;5003398;28;20186;-67
2022/08/25 01:58:23;;;;;;;4.33;2.30;;;;;;;19.39;61.20;100191.84;4994246;28;20189;-67
2022/08/25 02:00:53;;;;;;;4.03;2.63;;;;;;;19.28;63.31;100189.38;4983934;28;20789;-66
2022/08/25 02:03:19;;;;;;;5.77;2.63;;;;;;;19.32;62.55;100191.56;4989349;28;20172;-66
2022/08/25 02:05:45;;;;;;;5.23;2.77;;;;;;;19.22;63.73;100187.34;5003045;28;20210;-66
2022/08/25 02:08:10;;;;;;;3.77;3.10;;;;;;;19.24;63.73;100183.63;4989400;28;20239;-68
2022/08/25 02:10:36;;;;;;;4.10;2.70;;;;;;;19.28;63.48;100195.41;4980743;28;20230;-67
2022/08/25 02:13:01;;;;;;;6.27;3.20;;;;;;;19.23;64.38;100189.00;4989227;28;20652;-66
2022/08/25 02:15:26;;;;;;;2.87;2.60;;;;;;;19.17;64.17;100188.56;4984206;28;20187;-67
2022/08/25 02:17:51;;;;;;;7.30;2.73;;;;;;;19.14;64.11;100190.63;4993151;28;20203;-66
2022/08/25 02:20:17;;;;;;;3.00;2.33;;;;;;;19.19;64.14;100191.84;4985211;28;20221;-67
2022/08/25 02:22:43;;;;;;;6.77;3.23;;;;;;;19.16;64.39;100180.88;4988934;28;20699;-66
2022/08/25 02:25:09;;;;;;;7.17;2.93;;;;;;;19.16;64.75;100170.44;4994151;28;20225;-66
2022/08/25 02:27:34;;;;;;;3.87;3.03;;;;;;;19.15;64.64;100184.44;4993181;28;20230;-66
2022/08/25 02:30:00;;;;;;;6.37;2.87;;;;;;;19.11;65.07;100170.84;4995326;28;20214;-66
2022/08/25 02:32:26;;;;;;;3.27;2.90;;;;;;;19.02;65.88;100182.91;5005187;28;20305;-69
2022/08/25 02:34:51;;;;;;;5.20;2.80;;;;;;;18.99;67.04;100180.59;5007373;28;20179;-66
2022/08/25 02:37:17;;;;;;;4.07;2.80;;;;;;;19.01;66.49;100177.84;5005795;28;20183;-66
2022/08/25 02:39:42;;;;;;;5.97;2.90;;;;;;;19.00;66.91;100181.41;4989380;28;20227;-66
2022/08/25 02:42:07;;;;;;;5.80;3.00;;;;;;;18.98;66.93;100181.56;4982610;28;20231;-65
2022/08/25 02:44:33;;;;;;;3.33;3.03;;;;;;;18.91;68.18;100174.44;4993306;28;20176;-66
2022/08/25 02:46:58;;;;;;;3.23;2.93;;;;;;;18.95;68.42;100181.00;4988657;28;20235;-66
2022/08/25 02:49:24;;;;;;;3.57;3.27;;;;;;;18.91;68.95;100175.25;4991076;28;20176;-66
2022/08/25 02:51:49;;;;;;;3.80;2.87;;;;;;;18.83;69.54;100175.88;5000395;28;20241;-66
2022/08/25 02:54:14;;;;;;;4.10;2.90;;;;;;;18.80;69.69;100177.94;4990030;28;20184;-66
2022/08/25 02:56:41;;;;;;;3.53;3.23;;;;;;;18.78;70.35;100180.69;4982879;28;20183;-66
2022/08/25 02:59:06;;;;;;;3.57;2.90;;;;;;;18.84;70.06;100176.69;4992675;28;20187;-67
2022/08/25 03:01:32;;;;;;;11.90;3.07;;;;;;;18.84;70.19;100176.69;4972380;28;20222;-67
2022/08/25 03:03:58;;;;;;;6.43;3.30;;;;;;;18.85;70.67;100173.16;4991761;28;20238;-75
2022/08/25 03:06:23;;;;;;;8.30;3.30;;;;;;;18.80;71.51;100170.94;4988202;28;20204;-66
2022/08/25 03:08:49;;;;;;;3.40;3.10;;;;;;;18.81;71.33;100166.56;4984624;28;20214;-66
2022/08/25 03:11:16;;;;;;;5.77;3.10;;;;;;;18.80;71.88;100167.53;5000719;28;20333;-66
2022/08/25 03:13:42;;;;;;;4.10;2.97;;;;;;;18.77;71.98;100160.00;4998504;28;20249;-67
2022/08/25 03:16:09;;;;;;;4.83;3.73;;;;;;;18.76;72.16;100168.75;4990415;28;20222;-66
2022/08/25 03:18:35;;;;;;;4.90;3.67;;;;;;;18.69;73.13;100158.88;4999167;28;20234;-66
2022/08/25 03:21:00;;;;;;;5.33;3.50;;;;;;;18.73;73.69;100164.66;4989877;28;20321;-66
2022/08/25 03:23:25;;;;;;;4.70;3.50;;;;;;;18.74;73.49;100155.84;5000793;28;20191;-68
2022/08/25 03:28:38;;;;;;;4.63;3.07;;;;;;;18.70;74.56;100151.88;4980082;28;20253;-66
2022/08/25 03:31:04;;;;;;;3.30;3.00;;;;;;;18.65;74.87;100159.28;4975449;28;20964;-66
2022/08/25 03:33:30;;;;;;;4.60;2.93;;;;;;;18.67;74.67;100163.38;5004023;28;20274;-66
2022/08/25 03:35:56;;;;;;;4.63;2.93;;;;;;;18.57;75.96;100156.50;5007665;28;20218;-67
2022/08/25 03:38:22;;;;;;;4.73;3.40;;;;;;;18.52;76.56;100160.34;4983320;28;20203;-66
2022/08/25 03:40:48;;;;;;;5.33;3.20;;;;;;;18.43;77.86;100160.31;4983583;28;20238;-67
2022/08/25 03:43:13;;;;;;;5.93;3.43;;;;;;;18.48;77.41;100165.94;4966224;28;20546;-67
2022/08/25 03:45:40;;;;;;;3.67;3.23;;;;;;;18.43;77.87;100157.72;4972791;28;20184;-67
2022/08/25 03:48:06;;;;;;;5.23;3.67;;;;;;;18.43;77.39;100155.97;4976698;28;20219;-67
2022/08/25 03:50:31;;;;;;;6.50;3.20;;;;;;;18.37;77.65;100157.28;4970214;28;20235;-67
2022/08/25 03:52:58;;;;;;;7.30;3.57;;;;;;;18.28;78.82;100152.88;5001108;28;20669;-67
2022/08/25 03:55:24;;;;;;;4.50;3.47;;;;;;;18.28;79.88;100149.44;4996364;28;20640;-67
2022/08/25 03:57:51;;;;;;;5.27;3.73;;;;;;;18.25;80.38;100145.34;4996132;28;20187;-66
2022/08/25 04:00:17;;;;;;;6.47;3.53;;;;;;;18.33;79.70;100142.91;4982967;28;20266;-66
2022/08/25 04:02:43;;;;;;;3.80;3.40;;;;;;;18.35;80.05;100137.56;5006311;28;20172;-66
2022/08/25 04:05:09;;;;;;;4.63;3.33;;;;;;;18.36;81.22;100136.59;4995527;28;20194;-56
2022/08/25 04:07:34;;;;;;;3.97;3.67;;;;;;;18.50;79.20;100140.59;4995240;28;20278;-56
2022/08/25 04:10:00;;;;;;;5.07;4.27;;;;;;;18.53;79.30;100145.53;4989894;28;20188;-57
2022/08/25 04:12:25;;;;;;;5.73;3.33;;;;;;;18.48;80.18;100145.94;4992162;28;20235;-57
2022/08/25 04:14:51;;;;;;;3.93;3.40;;;;;;;18.40;80.64;100143.19;4993671;28;20325;-57
2022/08/25 04:17:17;;;;;;;5.73;3.60;;;;;;;18.43;80.43;100145.53;4995542;28;20610;-57
2022/08/25 04:19:42;;;;;;;5.57;3.43;;;;;;;18.30;82.08;100145.75;4995626;28;20203;-56
2022/08/25 04:22:07;;;;;;;7.10;3.93;;;;;;;18.29;82.31;100144.09;5000649;28;20226;-57
2022/08/25 04:24:33;;;;;;;5.93;3.70;;;;;;;18.41;82.61;100150.03;4995202;28;20635;-57
2022/08/25 04:26:58;;;;;;;4.77;3.60;;;;;;;18.63;80.60;100150.75;4995508;28;20186;-57
2022/08/25 04:29:25;;;;;;;8.57;4.20;;;;;;;18.76;79.32;100146.13;4995302;28;20275;-57
2022/08/25 04:31:51;;;;;;;4.70;4.20;;;;;;;18.55;80.42;100148.84;5007066;28;20234;-57
2022/08/25 04:34:19;;;;;;;5.37;3.73;;;;;;;18.57;79.45;100152.13;4993379;28;20199;-57
2022/08/25 04:36:45;;;;;;;5.90;3.37;;;;;;;18.57;79.33;100159.94;4995941;28;20226;-57
2022/08/25 04:39:11;;;;;;;6.00;3.87;;;;;;;18.61;77.68;100152.69;4981485;28;20199;-57
2022/08/25 04:41:36;;;;;;;5.00;3.60;;;;;;;18.71;77.80;100151.72;4983895;28;20234;-57
2022/08/25 04:44:02;;;;;;;8.73;3.60;;;;;;;18.88;76.81;100165.06;4996030;28;20250;-57
2022/08/25 04:46:30;;;;;;;6.50;3.47;;;;;;;18.83;78.15;100154.22;4995596;28;20179;-57
2022/08/25 04:48:57;;;;;;;9.27;3.90;;;;;;;18.87;78.69;100160.81;4995156;28;20208;-57
2022/08/25 04:51:26;;;;;;;5.57;4.20;;;;;;;18.84;78.61;100156.69;4995597;28;20308;-57
2022/08/25 04:53:53;;;;;;;4.53;3.87;;;;;;;18.94;78.62;100167.16;5004743;28;20187;-57
2022/08/25 04:56:20;;;;;;;5.73;4.10;;;;;;;18.93;78.22;100162.91;4994817;28;20179;-57
2022/08/25 04:58:46;;;;;;;7.33;4.07;;;;;;;18.85;77.91;100167.94;4995176;28;20309;-56
2022/08/25 05:01:15;;;;;;;8.03;4.10;;;;;;;18.89;77.63;100158.91;4993888;28;20314;-57
2022/08/25 05:03:40;;;;;;;5.63;4.13;;;;;;;18.88;77.40;100165.88;5001126;28;20548;-57
2022/08/25 05:06:07;;;;;;;5.63;3.97;;;;;;;18.89;76.37;100164.13;4994785;28;20705;-57
2022/08/25 05:08:33;;;;;;;7.47;3.90;;;;;;;18.95;74.85;100161.00;4994823;28;20191;-57
2022/08/25 05:10:58;;;;;;;6.17;4.83;;;;;;;18.95;75.63;100160.16;4991812;28;20238;-57
2022/08/25 05:13:25;;;;;;;6.30;4.03;;;;;;;18.82;76.86;100156.00;5002689;28;20184;-57
2022/08/25 05:15:52;;;;;;;7.20;3.80;;;;;;;18.92;75.97;100161.25;4994520;28;20188;-57
2022/08/25 05:18:20;;;;;;;5.60;4.13;;;;;;;19.12;75.73;100163.88;4994685;28;20689;-57
2022/08/25 05:20:45;;;;;;;8.10;4.27;;;;;;;19.32;74.56;100154.25;4990042;28;20639;-57
2022/08/25 05:23:10;;;;;;;7.67;4.87;;;;;;;19.37;75.57;100156.44;5004048;28;20266;-57
2022/08/25 05:25:36;;;;;;;6.03;4.57;;;;;;;19.35;76.88;100153.97;4994582;28;20266;-57
2022/08/25 05:28:02;;;;;;;5.33;4.30;;;;;;;19.52;76.38;100150.66;4994499;28;20203;-57
2022/08/25 05:30:27;;;;;;;5.63;4.40;;;;;;;19.65;76.11;100144.31;4986681;28;20242;-57
2022/08/25 05:32:53;;;;;;;6.17;4.67;;;;;;;19.68;75.94;100137.00;4995441;28;20224;-57
2022/08/25 05:35:19;;;;;;;7.23;4.50;;;;;;;19.76;76.24;100130.22;4997019;28;20262;-57
2022/08/25 05:37:44;;;;;;;9.07;5.70;;;;;;;19.94;75.88;100131.16;4986507;28;20196;-57
2022/08/25 05:40:10;;;;;;;7.57;5.43;;;;;;;20.18;75.15;100131.59;4979045;28;20234;-57
2022/08/25 05:42:36;;;;;;;8.27;4.90;;;;;;;20.38;73.90;100137.53;5008124;28;20548;-57
2022/08/25 05:45:02;;;;;;;4.80;4.30;;;;;;;20.43;73.94;100143.19;5009746;28;20210;-57
2022/08/25 05:47:27;;;;;;;6.03;5.10;;;;;;;20.46;75.31;100146.28;4994076;28;20349;-57
2022/08/25 05:49:52;;;;;;;12.67;5.47;;;;;;;20.59;73.97;100137.28;4994472;28;20698;-57
2022/08/25 05:52:19;;;;;;;9.97;5.50;;;;;;;20.74;73.42;100148.91;5004487;28;20221;-57
2022/08/25 05:54:44;;;;;;;9.23;4.53;;;;;;;20.85;72.47;100147.88;4993400;28;20172;-57
2022/08/25 05:57:09;;;;;;;5.33;4.83;;;;;;;20.86;72.74;100143.44;4993655;28;20206;-57
2022/08/25 05:59:35;;;;;;;6.20;5.10;;;;;;;20.96;72.50;100145.03;4989171;28;20326;-57
2022/08/25 06:04:44;;;;;;;6.47;5.77;;;;;;;21.17;72.94;100129.97;4993913;28;20326;-57
2022/08/25 06:07:10;;;;;;;9.63;5.57;;;;;;;21.17;73.34;100130.78;4993710;28;20969;-57
2022/08/25 06:09:40;;;;;;;6.47;5.87;;;;;;;21.25;73.34;100143.13;4993298;28;20222;-57
2022/08/25 06:12:06;;;;;;;8.83;5.73;;;;;;;21.38;73.35;100143.53;4999136;28;20704;-57
2022/08/25 06:14:32;;;;;;;5.93;5.43;;;;;;;21.41;73.29;100138.00;4992945;28;20647;-57
2022/08/25 06:16:59;;;;;;;6.33;5.73;;;;;;;21.60;72.59;100144.03;4993300;28;20194;-57
2022/08/25 06:19:24;;;;;;;7.97;5.93;;;;;;;21.61;72.47;100135.22;4983225;28;20204;-57
2022/08/25 06:21:53;;;;;;;7.00;6.30;;;;;;;21.66;73.17;100132.13;4985072;28;20696;-56
2022/08/25 06:24:19;;;;;;;6.57;5.87;;;;;;;21.77;72.91;100135.28;4981089;28;20179;-56
2022/08/25 06:26:44;;;;;;;7.37;5.80;;;;;;;21.98;71.45;100135.88;4987771;28;20279;-57
2022/08/25 06:29:10;;;;;;;6.70;6.07;;;;;;;22.19;70.30;100127.59;4983697;28;20565;-56
2022/08/25 06:31:35;;;;;;;5.83;5.23;;;;;;;22.21;70.64;100129.06;4995532;28;20246;-56
2022/08/25 06:34:00;;;;;;;7.97;5.70;;;;;;;22.20;70.80;100137.09;4988728;28;20184;-57
2022/08/25 06:36:25;;;;;;;9.73;6.60;;;;;;;22.17;71.43;100129.56;4993726;28;20176;-57
2022/08/25 06:38:51;;;;;;;7.33;5.70;;;;;;;22.29;71.06;100130.91;4985418;28;20226;-57
2022/08/25 06:41:16;;;;;;;6.93;5.90;;;;;;;22.53;69.88;100126.75;4982551;28;20237;-57
2022/08/25 06:43:42;;;;;;;9.10;7.17;;;;;;;22.77;68.68;100123.31;4986046;28;20222;-57
2022/08/25 06:46:13;;;;;;;11.93;7.23;;;;;;;23.23;67.08;100124.66;4986499;28;20278;-56
2022/08/25 06:48:39;;;;;;;8.93;6.83;;;;;;;24.07;62.69;100119.84;4992385;28;20257;-57
2022/08/25 06:51:10;;;;;;;9.90;5.80;;;;;;;25.00;57.83;100127.81;4982654;28;20227;-56
2022/08/25 06:53:35;;;;;;;7.43;6.43;;;;;;;25.47;55.96;100135.66;4992345;28;20206;-57
2022/08/25 06:56:01;;;;;;;7.72;6.00;;;;;;;26.61;51.02;100134.38;4986844;28;20224;-57
2022/08/25 06:58:26;;;;;;;13.77;6.20;;;;;;;27.04;48.52;100135.19;4984104;28;20604;-57
2022/08/25 07:00:52;;;;;;;8.82;5.80;;;;;;;26.69;49.63;100128.97;4968962;28;20219;-57
2022/08/25 07:03:17;;;;;;;8.68;5.53;;;;;;;26.86;49.21;100127.72;4987102;28;20183;-56
2022/08/25 07:05:53;;;;;;;7.60;5.65;;;;;;;27.11;48.55;100129.16;4985600;28;20183;-57
2022/08/25 07:08:19;;;;;;;14.18;6.07;;;;;;;27.57;46.42;100126.00;4992412;28;20231;-57
2022/08/25 07:10:45;;;;;;;7.82;6.13;;;;;;;27.86;46.38;100129.44;4987845;28;20257;-57
2022/08/25 07:13:11;;;;;;;6.93;6.00;;;;;;;28.12;45.16;100120.81;5001869;28;20191;-57
2022/08/25 07:15:38;;;;;;;14.18;5.90;;;;;;;28.28;44.37;100132.84;4984632;28;20230;-57
2022/08/25 07:18:04;;;;;;;8.15;5.78;;;;;;;28.01;45.29;100126.63;4994217;28;20299;-57
2022/08/25 07:20:30;;;;;;;8.38;4.93;;;;;;;28.27;45.16;100122.44;4978940;28;20297;-57
2022/08/25 07:22:55;;;;;;;6.05;4.90;;;;;;;28.72;43.42;100124.59;4991146;28;20214;-57
2022/08/25 07:25:21;;;;;;;6.03;5.30;;;;;;;28.92;42.79;100128.06;4990631;28;20619;-57
2022/08/25 07:27:46;;;;;;;5.72;5.22;;;;;;;29.62;41.42;100134.69;4985212;28;20223;-57
2022/08/25 07:30:12;;;;;;;7.68;5.68;;;;;;;30.27;39.46;100125.88;4961566;28;20266;-57
2022/08/25 07:32:38;;;;;;;7.03;5.72;;;;;;;29.35;41.14;100131.28;4991673;28;20651;-59
2022/08/25 07:35:16;;;;;;;8.15;5.57;;;;;;;29.60;41.54;100126.94;4994639;28;20198;-59
2022/08/25 07:37:47;;;;;;;8.18;5.10;;;;;;;29.86;40.10;100124.44;4983995;28;20183;-59
2022/08/25 07:40:16;;;;;;;7.45;5.60;;;;;;;29.93;40.23;100126.06;4977073;28;20591;-59
2022/08/25 07:42:42;;;;;;;8.13;6.00;;;;;;;30.24;39.22;100113.84;5005567;28;20242;-59
2022/08/25 07:45:09;;;;;;;8.98;5.72;;;;;;;30.71;38.58;100116.22;4991428;28;20190;-59
2022/08/25 07:47:35;;;;;;;8.45;5.20;;;;;;;31.05;37.98;100119.38;4991826;28;20589;-59
2022/08/25 07:50:01;;;;;;;6.53;5.40;;;;;;;31.13;37.78;100118.31;4992076;28;20194;-59
2022/08/25 07:52:27;;;;;;;6.53;5.18;;;;;;;30.42;38.67;100117.63;4994903;28;20235;-58
2022/08/25 07:54:53;;;;;;;7.35;5.82;;;;;;;31.38;37.17;100126.25;4991532;28;20267;-59
2022/08/25 07:57:21;;;;;;;9.20;5.50;;;;;;;31.14;37.50;100135.06;4991575;28;20710;-59
2022/08/25 07:59:47;;;;;;;8.75;5.68;;;;;;;30.63;38.73;100129.75;4989248;28;20179;-59
2022/08/25 08:02:12;;;;;;;6.22;5.63;;;;;;;31.20;37.17;100123.56;4982038;28;20285;-58
2022/08/25 08:04:38;;;;;;;9.55;5.68;;;;;;;30.50;38.80;100122.69;4990296;28;20191;-59
2022/08/25 08:07:04;;;;;;;5.45;4.95;;;;;;;31.38;36.89;100134.22;4991680;28;20642;-58
2022/08/25 08:09:32;;;;;;;7.95;5.30;;;;;;;31.89;35.50;100133.25;4991802;28;20187;-58
2022/08/25 08:11:57;;;;;;;7.47;5.70;;;;;;;30.50;37.84;100125.34;4995940;28;20314;-59
2022/08/25 08:14:23;;;;;;;5.85;5.35;;;;;;;31.18;37.28;100133.59;4991650;28;20258;-58
2022/08/25 08:16:48;;;;;;;9.40;5.75;;;;;;;32.12;35.65;100137.88;4995565;28;20572;-58
2022/08/25 08:19:14;;;;;;;10.70;5.93;;;;;;;32.99;33.44;100129.41;4995245;28;20282;-58
2022/08/25 08:21:40;;;;;;;6.82;5.53;;;;;;;31.86;35.46;100140.63;4994626;28;20774;-58
2022/08/25 08:24:06;;;;;;;7.53;5.55;;;;;;;30.82;37.81;100140.44;4986527;28;20215;-58
2022/08/25 08:26:32;;;;;;;6.60;5.45;;;;;;;30.70;38.49;100140.31;4994984;28;20180;-58
2022/08/25 08:28:57;;;;;;;8.20;5.68;;;;;;;31.36;36.46;100140.78;4995049;28;20562;-58
2022/08/25 08:31:25;;;;;;;8.90;5.45;;;;;;;31.58;35.54;100137.69;5001037;28;20218;-58
2022/08/25 08:33:52;;;;;;;6.15;5.28;;;;;;;31.97;34.96;100135.63;4999536;28;20184;-58
2022/08/25 08:36:17;;;;;;;7.20;6.15;;;;;;;33.26;32.82;100128.13;4997505;28;20233;-58
2022/08/25 08:38:45;;;;;;;7.35;5.22;;;;;;;32.41;33.92;100127.44;4995339;28;20245;-59
2022/08/25 08:44:31;;;;;;;7.10;5.80;;;;;;;34.19;30.41;100127.31;4995106;28;20192;-59
2022/08/25 08:47:15;;;;;;;7.88;5.35;;;;;;;33.69;31.23;100131.41;4994924;28;20270;-58
2022/08/25 08:50:01;;;;;;;7.32;5.45;;;;;;;33.54;30.69;100122.06;4994833;28;20337;-59
2022/08/25 08:52:34;;;;;;;6.82;4.82;;;;;;;33.22;31.42;100122.44;5002295;28;20339;-58
2022/08/25 08:55:06;;;;;;;9.02;5.63;;;;;;;33.36;31.27;100119.56;4994271;28;20194;-58
2022/08/25 08:57:40;;;;;;;7.28;5.45;;;;;;;32.33;32.77;100116.09;4994197;28;20198;-58
2022/08/25 09:00:07;;;;;;;5.93;5.30;;;;;;;33.48;31.94;100123.03;4984938;28;20541;-59
2022/08/25 09:02:41;;;;;;;7.68;6.25;;;;;;;33.93;31.21;100124.19;5009197;28;20182;-58
2022/08/25 09:05:11;;;;;;;7.85;6.13;;;;;;;33.48;32.06;100115.03;4994378;28;20190;-58
2022/08/25 09:07:49;;;;;;;6.28;5.47;;;;;;;33.75;31.70;100114.47;4994239;28;20693;-58
2022/08/25 09:10:16;;;;;;;7.15;5.55;;;;;;;33.19;32.21;100117.56;4985793;28;20209;-58
2022/08/25 09:13:06;;;;;;;9.57;6.28;;;;;;;33.56;31.64;100111.97;5007809;28;20198;-58
2022/08/25 09:18:50;;;;;;;5.88;5.32;;;;;;;32.85;31.93;100106.72;4984871;28;20278;-58
2022/08/25 09:21:31;;;;;;;6.25;5.65;;;;;;;33.82;30.52;100098.34;4990436;28;20309;-58
2022/08/25 09:24:25;;;;;;;8.85;5.90;;;;;;;34.37;30.14;100102.28;4997067;28;20198;-58
2022/08/25 09:27:01;;;;;;;6.15;5.18;;;;;;;33.38;31.54;100102.28;4993116;28;20585;-59
2022/08/25 09:29:34;;;;;;;6.63;5.65;;;;;;;34.49;29.74;100092.31;4994014;28;20636;-58
2022/08/25 09:32:02;;;;;;;6.28;5.43;;;;;;;35.25;28.36;100101.69;5000932;28;20226;-59
2022/08/25 09:34:32;;;;;;;5.93;5.05;;;;;;;33.79;30.37;100092.41;4995433;28;20235;-58
2022/08/25 09:36:58;;;;;;;5.30;4.80;;;;;;;34.93;29.30;100091.69;4989515;28;20655;-59
2022/08/25 09:39:24;;;;;;;6.55;5.22;;;;;;;34.16;30.04;100079.72;4982070;28;20231;-59
2022/08/25 09:41:54;;;;;;;5.57;5.18;;;;;;;33.44;31.10;100068.53;4980104;28;20653;-58
2022/08/25 09:44:31;;;;;;;5.85;5.28;;;;;;;34.90;28.86;100071.56;4987484;28;20211;-58
2022/08/25 09:47:12;;;;;;;7.53;5.63;;;;;;;34.93;28.65;100072.16;4993747;28;20713;-58
2022/08/25 09:49:41;;;;;;;11.80;10.77;;;;;;;34.87;28.75;100066.75;4993601;28;20182;-58
2022/08/25 09:52:36;;;;;;;6.32;5.15;;;;;;;34.99;28.88;100060.47;4987916;28;20317;-58
2022/08/25 09:55:04;;;;;;;5.55;5.00;;;;;;;33.51;29.75;100053.22;4993154;28;20681;-58
2022/08/25 09:57:42;;;;;;;6.10;5.60;;;;;;;33.56;29.79;100053.31;4993518;28;20281;-58
2022/08/25 10:00:20;;;;;;;6.03;5.20;;;;;;;34.73;28.76;100046.72;4984016;28;20206;-58
2022/08/25 10:03:08;;;;;;;7.85;5.40;;;;;;;34.99;27.37;100049.78;4996469;28;20598;-58
2022/08/25 10:05:38;;;;;;;5.97;5.38;;;;;;;34.76;27.74;100046.25;4987599;28;20667;-58
2022/08/25 10:08:21;;;;;;;8.02;5.45;;;;;;;34.93;27.27;100043.59;4990200;28;20203;-58
2022/08/25 10:10:56;;;;;;;8.77;5.50;;;;;;;34.50;28.17;100031.72;4982351;28;20617;-59
2022/08/25 10:13:33;;;;;;;5.18;4.55;;;;;;;33.09;29.81;100035.56;4977480;28;20219;-58
2022/08/25 10:16:11;;;;;;;6.05;5.45;;;;;;;32.75;30.95;100027.38;4987275;28;20187;-58
2022/08/25 10:18:37;;;;;;;5.13;4.57;;;;;;;33.62;29.63;100024.88;4979123;28;20246;-57
2022/08/25 10:21:06;;;;;;;5.40;4.90;;;;;;;33.39;29.97;100018.59;4987252;28;20694;-58
2022/08/25 10:23:35;;;;;;;6.15;4.80;;;;;;;34.60;28.45;100015.84;4988667;28;20195;-58
2022/08/25 10:26:08;;;;;;;5.78;4.63;;;;;;;35.57;26.54;100022.69;4992465;28;20195;-57
2022/08/25 10:29:05;;;;;;;5.88;5.20;;;;;;;36.35;25.54;100024.97;4983584;28;20226;-58
2022/08/25 10:31:36;;;;;;;4.63;4.22;;;;;;;35.14;26.96;100033.13;4998031;28;20218;-58
2022/08/25 10:34:16;;;;;;;4.45;4.05;;;;;;;34.69;27.61;100024.25;4995162;28;20214;-58
2022/08/25 10:36:50;;;;;;;5.30;4.80;;;;;;;36.47;25.82;100014.91;4992926;28;20194;-58
2022/08/25 10:39:39;;;;;;;5.22;4.72;;;;;;;35.15;25.94;100018.72;4979147;28;20261;-59
2022/08/25 10:42:28;;;;;;;4.45;4.05;;;;;;;32.45;30.54;100000.84;4991597;28;20242;-59
2022/08/25 10:48:25;;;;;;;8.40;6.05;;;;;;;30.38;33.77;99995.16;4992125;28;20756;-59
2022/08/25 10:51:15;;;;;;;5.55;4.53;;;;;;;30.27;34.68;99980.75;4988501;28;20669;-58
2022/08/25 10:54:04;;;;;;;10.23;9.43;;;;;;;29.81;35.90;99989.84;5001483;28;20197;-58
2022/08/25 10:56:36;;;;;;;5.32;4.82;;;;;;;29.41;36.34;99992.69;4992549;28;20233;-58
2022/08/25 10:59:29;;;;;;;5.40;4.95;;;;;;;28.87;37.70;99981.47;4992537;28;20195;-59
2022/08/25 11:02:12;;;;;;;8.65;5.93;;;;;;;29.17;37.55;99978.31;4971132;28;20235;-59
2022/08/25 11:04:45;;;;;;;5.53;5.03;;;;;;;29.51;36.51;99985.13;4979595;28;20674;-59
2022/08/25 11:07:37;;;;;;;5.60;4.65;;;;;;;29.43;36.97;99972.13;4989977;28;20192;-59
2022/08/25 11:10:10;;;;;;;5.55;5.05;;;;;;;29.26;36.87;99967.28;4986982;28;20211;-58
2022/08/25 11:12:43;;;;;;;6.05;5.20;;;;;;;29.12;37.16;99958.53;5002246;28;20199;-58
2022/08/25 11:15:19;;;;;;;7.03;5.72;;;;;;;29.29;37.43;99960.78;4982573;28;20183;-59
2022/08/25 11:18:01;;;;;;;5.40;4.90;;;;;;;29.44;38.19;99966.59;4997489;28;20191;-65
2022/08/25 11:20:36;;;;;;;6.10;5.45;;;;;;;29.52;37.07;99965.56;4980916;28;20257;-64
2022/08/25 11:23:13;;;;;;;6.35;4.65;;;;;;;29.67;37.07;99961.78;4979609;28;20635;-64
2022/08/25 11:25:44;;;;;;;5.75;5.28;;;;;;;29.93;35.99;99959.00;4990641;28;20320;-65
2022/08/25 11:28:22;;;;;;;4.75;4.35;;;;;;;29.71;35.90;99957.72;4990678;28;20207;-65
2022/08/25 11:30:51;;;;;;;5.80;5.25;;;;;;;29.62;35.38;99957.13;4959490;28;20247;-65
2022/08/25 11:33:17;;;;;;;4.88;4.43;;;;;;;29.90;35.42;99951.47;4969052;28;20284;-65
2022/08/25 11:35:52;;;;;;;6.63;6.03;;;;;;;29.73;36.03;99950.34;4958556;28;20188;-64
2022/08/25 11:38:33;;;;;;;5.82;5.22;;;;;;;29.33;36.57;99948.72;4953921;28;20196;-65
2022/08/25 11:41:34;;;;;;;5.82;5.20;;;;;;;29.15;37.03;99946.75;4955769;28;20249;-65
2022/08/25 11:44:18;;;;;;;5.88;5.38;;;;;;;29.20;37.01;99949.56;4992465;28;20190;-64
2022/08/25 11:46:47;;;;;;;5.70;5.20;;;;;;;29.40;36.67;99943.41;5007690;28;20184;-64
2022/08/25 11:49:30;;;;;;;7.82;5.72;;;;;;;29.95;35.18;99942.88;4991955;28;20207;-65
2022/08/25 11:51:57;;;;;;;6.75;6.25;;;;;;;30.01;35.32;99949.97;5005134;28;20226;-64